Terminal Aerodrome Forecast
Issued by NWS

Home | Current Version | Previous Version | Text Only | Print | Product List | Glossary On
Versions: 1 2 3 4 5 6 7 8 9 10 11 12 13
967
FTUS45 KFGZ 302323
TAFPRC
TAF
KPRC 302323Z 3100/3124 20025G35KT P6SM FEW100
     FM310200 25020G30KT P6SM SCT050 BKN070
     FM310700 27013G23KT P6SM SCT050 BKN070=

USA.gov is the U.S. government's official web portal to all federal, state and local government web resources and services.